Time;durP1;ratioP1;P1;durP2;ratioP2;P2;SDS_P1;SDS_P2;PMS_P1;PMS_P2;Temp;Humidity;BMP_temperature;BMP_pressure;BME280_temperature;BME280_humidity;BME280_pressure;Samples;Min_cycle;Max_cycle;Signal;HPM_P1;HPM_P2
2021/06/27 00:01:57;;;;;;;9.00;7.15;;;21.20;99.90;;;;;;4993305;28;20077;-76
2021/06/27 00:04:22;;;;;;;12.27;7.57;;;21.20;99.90;;;;;;4992474;28;20117;-76
2021/06/27 00:06:48;;;;;;;10.10;7.78;;;21.20;99.90;;;;;;5008381;28;20121;-77
2021/06/27 00:09:14;;;;;;;11.32;7.25;;;21.20;99.90;;;;;;4993589;28;20022;-77
2021/06/27 00:11:40;;;;;;;9.80;8.05;;;21.20;99.90;;;;;;4992462;28;20376;-76
2021/06/27 00:14:07;;;;;;;10.68;8.65;;;21.20;99.90;;;;;;4992946;28;20027;-76
2021/06/27 00:16:33;;;;;;;9.38;7.57;;;21.20;99.90;;;;;;4992354;28;20076;-74
2021/06/27 00:19:01;;;;;;;10.40;8.15;;;21.20;99.90;;;;;;4992867;28;20041;-74
2021/06/27 00:21:27;;;;;;;11.35;8.25;;;21.20;99.90;;;;;;4992531;28;20054;-74
2021/06/27 00:23:53;;;;;;;10.07;8.48;;;21.20;99.90;;;;;;4992980;28;20060;-74
2021/06/27 00:26:23;;;;;;;12.38;9.25;;;21.10;99.90;;;;;;4993094;28;20631;-76
2021/06/27 00:28:50;;;;;;;12.15;9.02;;;21.10;99.90;;;;;;4992536;28;20109;-74
2021/06/27 00:31:15;;;;;;;11.13;8.93;;;21.10;99.90;;;;;;4993485;28;20088;-74
2021/06/27 00:33:41;;;;;;;12.50;9.57;;;21.20;99.90;;;;;;4992375;28;20031;-74
2021/06/27 00:36:08;;;;;;;13.48;10.00;;;21.10;99.90;;;;;;4973473;28;20034;-74
2021/06/27 00:38:35;;;;;;;13.60;10.25;;;21.10;99.90;;;;;;4983666;28;20053;-74
2021/06/27 00:41:01;;;;;;;11.55;9.48;;;21.10;99.90;;;;;;4991938;28;20037;-74
2021/06/27 00:43:28;;;;;;;13.13;9.75;;;21.10;99.90;;;;;;4992088;28;20030;-73
2021/06/27 00:45:53;;;;;;;12.90;9.80;;;21.10;99.90;;;;;;4992585;28;20042;-73
2021/06/27 00:48:19;;;;;;;12.70;10.07;;;21.10;99.90;;;;;;4992272;28;20542;-75
2021/06/27 00:50:48;;;;;;;13.65;10.65;;;21.10;99.90;;;;;;4991396;28;20398;-73
2021/06/27 00:53:14;;;;;;;11.73;10.15;;;21.10;99.90;;;;;;4991926;28;20034;-75
2021/06/27 00:55:41;;;;;;;11.35;10.10;;;21.10;99.90;;;;;;4992377;28;20273;-74
2021/06/27 00:58:07;;;;;;;13.13;10.00;;;21.10;99.90;;;;;;4992406;28;20022;-74
2021/06/27 01:00:39;;;;;;;13.77;10.32;;;21.10;99.90;;;;;;4991543;28;20061;-74
2021/06/27 01:03:05;;;;;;;13.52;10.50;;;21.10;99.90;;;;;;4990719;28;20029;-73
2021/06/27 01:05:40;;;;;;;13.38;10.98;;;21.10;99.90;;;;;;4991187;28;20066;-75
2021/06/27 01:08:06;;;;;;;14.18;11.13;;;21.10;99.90;;;;;;4991945;28;20418;-73
2021/06/27 01:10:33;;;;;;;13.85;11.23;;;21.10;99.90;;;;;;4991970;28;20034;-74
2021/06/27 01:12:59;;;;;;;13.73;11.02;;;21.10;99.90;;;;;;4991643;28;20029;-74
2021/06/27 01:15:25;;;;;;;14.07;10.68;;;21.10;99.90;;;;;;4992176;28;20022;-74
2021/06/27 01:17:53;;;;;;;11.88;10.18;;;21.10;99.90;;;;;;4991703;28;20027;-75
2021/06/27 01:20:18;;;;;;;14.75;11.13;;;21.10;99.90;;;;;;4992194;28;20018;-74
2021/06/27 01:22:44;;;;;;;14.52;11.00;;;21.10;99.90;;;;;;4991106;28;20505;-74
2021/06/27 01:25:12;;;;;;;15.40;11.93;;;21.00;99.90;;;;;;4992443;28;20425;-75
2021/06/27 01:27:37;;;;;;;14.40;11.57;;;21.00;99.90;;;;;;4991702;28;20088;-73
2021/06/27 01:30:06;;;;;;;14.98;11.60;;;21.00;99.90;;;;;;4991046;28;20030;-74
2021/06/27 01:32:32;;;;;;;15.30;12.88;;;21.00;99.90;;;;;;4991764;28;20451;-75
2021/06/27 01:34:57;;;;;;;15.52;12.00;;;21.00;99.90;;;;;;4991268;28;20033;-74
2021/06/27 01:37:26;;;;;;;15.82;12.05;;;21.00;99.90;;;;;;4991808;28;20053;-76
2021/06/27 01:39:51;;;;;;;13.50;11.73;;;21.00;99.90;;;;;;4990859;28;20518;-76
2021/06/27 01:42:17;;;;;;;15.40;11.75;;;21.00;99.90;;;;;;4991370;28;20038;-74
2021/06/27 01:44:42;;;;;;;14.48;12.10;;;21.00;99.90;;;;;;4991632;28;20034;-73
2021/06/27 01:47:08;;;;;;;15.38;12.55;;;21.00;99.90;;;;;;4990902;28;20509;-74
2021/06/27 01:49:34;;;;;;;16.48;13.52;;;21.00;99.90;;;;;;4991031;28;20062;-74
2021/06/27 01:51:59;;;;;;;17.23;12.55;;;21.00;99.90;;;;;;4990951;28;20026;-74
2021/06/27 01:54:25;;;;;;;15.40;12.93;;;21.00;99.90;;;;;;4991730;28;20030;-75
2021/06/27 01:56:50;;;;;;;17.55;13.95;;;21.00;99.90;;;;;;4991724;28;20058;-74
2021/06/27 01:59:16;;;;;;;16.80;12.88;;;21.00;99.90;;;;;;4991943;28;20503;-75
2021/06/27 02:01:42;;;;;;;16.48;13.20;;;21.00;99.90;;;;;;4991409;28;20026;-76
2021/06/27 02:04:09;;;;;;;17.27;13.48;;;21.00;99.90;;;;;;4991266;28;20018;-74
2021/06/27 02:06:38;;;;;;;17.02;13.98;;;21.00;99.90;;;;;;4991365;28;20438;-73
2021/06/27 02:09:07;;;;;;;15.32;13.10;;;21.00;99.90;;;;;;4991629;28;20101;-74
2021/06/27 02:11:34;;;;;;;15.30;12.52;;;20.90;99.90;;;;;;4991085;28;20037;-76
2021/06/27 02:14:00;;;;;;;18.45;13.90;;;20.90;99.90;;;;;;4990974;28;20482;-74
2021/06/27 02:16:26;;;;;;;17.45;13.68;;;20.90;99.90;;;;;;4990995;28;20030;-75
2021/06/27 02:18:53;;;;;;;17.30;13.95;;;20.90;99.90;;;;;;4990189;28;20019;-75
2021/06/27 02:21:28;;;;;;;16.13;13.05;;;20.90;99.90;;;;;;4990214;28;20050;-76
2021/06/27 02:23:54;;;;;;;19.77;14.70;;;20.90;99.90;;;;;;4990940;28;20023;-73
2021/06/27 02:26:20;;;;;;;17.58;14.23;;;20.90;99.90;;;;;;4991025;28;20043;-73
2021/06/27 02:28:47;;;;;;;18.75;13.98;;;20.90;99.90;;;;;;4991365;28;20521;-74
2021/06/27 02:31:13;;;;;;;19.33;14.45;;;20.90;99.90;;;;;;4991293;28;20026;-74
2021/06/27 02:33:39;;;;;;;18.00;13.93;;;20.90;99.90;;;;;;4991290;28;20091;-73
2021/06/27 02:36:06;;;;;;;17.33;13.18;;;20.90;99.90;;;;;;4991511;28;20097;-74
2021/06/27 02:38:31;;;;;;;16.65;13.82;;;20.90;99.90;;;;;;4991142;28;20510;-74
2021/06/27 02:40:57;;;;;;;15.80;13.45;;;20.90;99.90;;;;;;4994608;28;20030;-74
2021/06/27 02:43:24;;;;;;;14.88;12.80;;;20.90;99.90;;;;;;4993374;28;20030;-74
2021/06/27 02:45:49;;;;;;;15.90;13.38;;;20.90;99.90;;;;;;4994974;28;20026;-74
2021/06/27 02:48:16;;;;;;;18.92;14.88;;;20.90;99.90;;;;;;4994992;28;20022;-74
2021/06/27 02:50:43;;;;;;;20.02;15.73;;;20.90;99.90;;;;;;4994045;28;20035;-73
2021/06/27 02:53:09;;;;;;;19.38;15.65;;;20.80;99.90;;;;;;4993978;28;20109;-74
2021/06/27 02:55:35;;;;;;;18.27;15.63;;;20.90;99.90;;;;;;4994250;28;20037;-74
2021/06/27 02:58:01;;;;;;;21.55;15.68;;;20.90;99.90;;;;;;4994888;28;20027;-73
2021/06/27 03:00:29;;;;;;;19.73;16.15;;;20.90;99.90;;;;;;4994074;28;20085;-74
2021/06/27 03:02:55;;;;;;;20.10;15.93;;;20.90;99.90;;;;;;4994397;28;20446;-75
2021/06/27 03:05:21;;;;;;;17.65;15.57;;;20.80;99.90;;;;;;4993576;28;20031;-74
2021/06/27 03:07:46;;;;;;;20.08;16.50;;;20.90;99.90;;;;;;4994689;28;20514;-73
2021/06/27 03:10:16;;;;;;;18.90;15.95;;;20.90;99.90;;;;;;4994295;28;20018;-74
2021/06/27 03:12:44;;;;;;;19.38;16.33;;;20.80;99.90;;;;;;4993967;28;20510;-74
2021/06/27 03:15:12;;;;;;;19.42;16.02;;;20.80;99.90;;;;;;4994341;28;20062;-74
2021/06/27 03:17:38;;;;;;;20.58;15.95;;;20.80;99.90;;;;;;4993035;28;20114;-74
2021/06/27 03:20:05;;;;;;;21.48;16.70;;;20.80;99.90;;;;;;4993661;28;20101;-74
2021/06/27 03:22:31;;;;;;;23.13;16.80;;;20.80;99.90;;;;;;4993763;28;20022;-74
2021/06/27 03:24:57;;;;;;;20.88;16.08;;;20.80;99.90;;;;;;4994112;28;20438;-74
2021/06/27 03:27:22;;;;;;;22.70;16.88;;;20.80;99.90;;;;;;4993841;28;20490;-74
2021/06/27 03:29:49;;;;;;;21.33;16.55;;;20.80;99.90;;;;;;4993981;28;20018;-74
2021/06/27 03:32:14;;;;;;;22.02;16.85;;;20.80;99.90;;;;;;4993794;28;20574;-75
2021/06/27 03:34:40;;;;;;;21.10;16.73;;;20.80;99.90;;;;;;4993275;28;20105;-75
2021/06/27 03:37:06;;;;;;;21.92;17.23;;;20.80;99.90;;;;;;4993484;28;20042;-73
2021/06/27 03:39:32;;;;;;;19.70;15.80;;;20.90;99.90;;;;;;4993593;28;20038;-75
2021/06/27 03:41:58;;;;;;;19.50;16.42;;;20.80;99.90;;;;;;4992630;28;20041;-75
2021/06/27 03:44:26;;;;;;;21.40;17.60;;;20.80;99.90;;;;;;4993251;28;20072;-76
2021/06/27 03:46:52;;;;;;;21.95;17.25;;;20.80;99.90;;;;;;4993879;28;20038;-74
2021/06/27 03:49:19;;;;;;;21.80;17.33;;;20.80;99.90;;;;;;4993721;28;20093;-73
2021/06/27 03:51:45;;;;;;;21.52;18.33;;;20.80;99.90;;;;;;4992046;28;20014;-75
2021/06/27 03:54:11;;;;;;;23.23;19.13;;;20.80;99.90;;;;;;4993695;28;20037;-73
2021/06/27 03:56:37;;;;;;;22.95;18.50;;;20.80;99.90;;;;;;4993011;28;20399;-74
2021/06/27 03:59:04;;;;;;;22.45;18.35;;;20.80;99.90;;;;;;4993797;28;20033;-74
2021/06/27 04:01:31;;;;;;;22.42;18.65;;;20.80;99.90;;;;;;4992683;28;20132;-74
2021/06/27 04:03:56;;;;;;;22.65;18.15;;;20.80;99.90;;;;;;4993105;28;20028;-74
2021/06/27 04:06:22;;;;;;;23.70;19.05;;;20.80;99.90;;;;;;4992576;28;20042;-74
2021/06/27 04:08:48;;;;;;;22.45;18.38;;;20.80;99.90;;;;;;4993595;28;20037;-74
2021/06/27 04:11:13;;;;;;;22.95;18.52;;;20.80;99.90;;;;;;4992999;28;20446;-73
2021/06/27 04:13:39;;;;;;;21.90;19.55;;;20.80;99.90;;;;;;4993303;28;20402;-74
2021/06/27 04:16:06;;;;;;;22.50;18.52;;;20.80;99.90;;;;;;4992718;28;20034;-73
2021/06/27 04:18:33;;;;;;;23.77;19.20;;;20.80;99.90;;;;;;4992697;28;20037;-74
2021/06/27 04:20:59;;;;;;;21.83;18.80;;;20.80;99.90;;;;;;4992609;28;20552;-73
2021/06/27 04:23:27;;;;;;;25.42;19.38;;;20.80;99.90;;;;;;4992483;28;20062;-74
2021/06/27 04:25:52;;;;;;;22.33;18.15;;;20.80;99.90;;;;;;4992923;28;20089;-74
2021/06/27 04:28:18;;;;;;;24.13;20.13;;;20.80;99.90;;;;;;4993476;28;20019;-74
2021/06/27 04:30:44;;;;;;;24.20;19.05;;;20.70;99.90;;;;;;4992220;28;20038;-74
2021/06/27 04:33:11;;;;;;;23.77;19.35;;;20.80;99.90;;;;;;4992790;28;20426;-74
2021/06/27 04:35:38;;;;;;;23.63;18.40;;;20.80;99.90;;;;;;4991734;28;20073;-74
2021/06/27 04:38:06;;;;;;;22.48;18.42;;;20.80;99.90;;;;;;4992797;28;20054;-75
2021/06/27 04:40:33;;;;;;;23.05;20.05;;;20.70;99.90;;;;;;4992395;28;20049;-73
2021/06/27 04:42:59;;;;;;;25.30;18.88;;;20.70;99.90;;;;;;4992413;28;20030;-73
2021/06/27 04:45:25;;;;;;;23.25;17.77;;;20.70;99.90;;;;;;4992484;28;20555;-75
2021/06/27 04:47:51;;;;;;;25.23;19.42;;;20.70;99.90;;;;;;4992649;28;20042;-73
2021/06/27 04:50:16;;;;;;;22.30;18.45;;;20.70;99.90;;;;;;4990665;28;20028;-74
2021/06/27 04:52:42;;;;;;;22.83;18.08;;;20.70;99.90;;;;;;4990426;28;20034;-73
2021/06/27 04:55:09;;;;;;;25.58;20.33;;;20.70;99.90;;;;;;4992208;28;20033;-74
2021/06/27 04:57:35;;;;;;;24.55;19.08;;;20.70;99.90;;;;;;4992288;28;20101;-74
2021/06/27 05:00:04;;;;;;;25.27;19.25;;;20.70;99.90;;;;;;4991834;28;20034;-73
2021/06/27 05:02:30;;;;;;;22.55;18.23;;;20.70;99.90;;;;;;4991151;28;20026;-73
2021/06/27 05:04:55;;;;;;;25.15;19.60;;;20.70;99.90;;;;;;4992078;28;20537;-74
2021/06/27 05:07:22;;;;;;;22.48;18.98;;;20.70;99.90;;;;;;4991604;28;20164;-74
2021/06/27 05:09:49;;;;;;;23.80;19.95;;;20.70;99.90;;;;;;4991980;28;20569;-73
2021/06/27 05:12:15;;;;;;;24.38;19.23;;;20.70;99.90;;;;;;4992208;28;20049;-75
2021/06/27 05:14:40;;;;;;;22.45;18.80;;;20.70;99.90;;;;;;4991683;28;20034;-75
2021/06/27 05:17:06;;;;;;;22.23;18.25;;;20.70;99.90;;;;;;4992355;28;20077;-75
2021/06/27 05:19:32;;;;;;;22.08;19.67;;;20.70;99.90;;;;;;4991340;28;20089;-74
2021/06/27 05:21:57;;;;;;;23.48;18.60;;;20.70;99.90;;;;;;4990104;28;20402;-74
2021/06/27 05:24:23;;;;;;;24.85;19.88;;;20.70;99.90;;;;;;4991987;28;20044;-74
2021/06/27 05:26:49;;;;;;;23.15;18.65;;;20.70;99.90;;;;;;4991082;28;20041;-74
2021/06/27 05:29:14;;;;;;;23.48;19.05;;;20.70;99.90;;;;;;4992342;28;20022;-74
2021/06/27 05:31:40;;;;;;;20.95;18.15;;;20.70;99.90;;;;;;4990899;28;20026;-75
2021/06/27 05:34:06;;;;;;;26.05;19.98;;;20.70;99.90;;;;;;4991621;28;20073;-74
2021/06/27 05:36:38;;;;;;;21.92;19.35;;;20.70;99.90;;;;;;4991513;28;20077;-75
2021/06/27 05:39:09;;;;;;;23.70;19.08;;;20.70;99.90;;;;;;4990448;28;20088;-77
2021/06/27 05:41:35;;;;;;;23.70;18.77;;;20.70;99.90;;;;;;4990896;28;20064;-74
2021/06/27 05:44:01;;;;;;;22.95;19.65;;;20.70;99.90;;;;;;4992003;28;20170;-74
2021/06/27 05:46:27;;;;;;;23.80;19.33;;;20.60;99.90;;;;;;4990904;28;20541;-74
2021/06/27 05:48:53;;;;;;;23.33;18.30;;;20.60;99.90;;;;;;4991239;28;20022;-73
2021/06/27 05:51:18;;;;;;;24.00;20.50;;;20.70;99.90;;;;;;4989185;28;20022;-74
2021/06/27 05:53:44;;;;;;;22.10;18.67;;;20.60;99.90;;;;;;4991115;28;20026;-75
2021/06/27 05:56:11;;;;;;;22.63;19.55;;;20.60;99.90;;;;;;4991231;28;20023;-74
2021/06/27 05:58:41;;;;;;;25.98;18.05;;;20.60;99.90;;;;;;4991310;28;20554;-73
2021/06/27 06:01:09;;;;;;;22.55;18.73;;;20.60;99.90;;;;;;4991726;28;20034;-73
2021/06/27 06:03:36;;;;;;;23.75;19.70;;;20.60;99.90;;;;;;4991370;28;20041;-74
2021/06/27 06:06:01;;;;;;;22.45;19.65;;;20.70;99.90;;;;;;4990660;28;20046;-74
2021/06/27 06:08:28;;;;;;;21.13;18.85;;;20.70;99.90;;;;;;4991178;28;20034;-75
2021/06/27 06:10:54;;;;;;;24.33;19.80;;;20.70;99.90;;;;;;4991397;28;20470;-73
2021/06/27 06:13:20;;;;;;;24.20;20.10;;;20.60;99.90;;;;;;4990058;28;20065;-73
2021/06/27 06:15:45;;;;;;;23.77;19.05;;;20.60;99.90;;;;;;4993899;28;20057;-75
2021/06/27 06:18:11;;;;;;;24.45;18.88;;;20.60;99.90;;;;;;4995557;28;20027;-73
2021/06/27 06:20:37;;;;;;;24.08;19.30;;;20.60;99.90;;;;;;4994005;28;20096;-73
2021/06/27 06:23:02;;;;;;;22.45;19.13;;;20.60;99.90;;;;;;4995037;28;20057;-73
2021/06/27 06:25:28;;;;;;;22.67;19.40;;;20.60;99.90;;;;;;4994868;28;20038;-76
2021/06/27 06:27:54;;;;;;;24.90;20.42;;;20.60;99.90;;;;;;4995180;28;20038;-74
2021/06/27 06:30:20;;;;;;;21.75;18.38;;;20.60;99.90;;;;;;4995651;28;20026;-73
2021/06/27 06:32:45;;;;;;;23.33;18.75;;;20.60;99.90;;;;;;4995750;28;20037;-74
2021/06/27 06:35:12;;;;;;;22.08;18.98;;;20.60;99.90;;;;;;4994665;28;20501;-75
2021/06/27 06:37:37;;;;;;;23.25;19.58;;;20.60;99.90;;;;;;4995018;28;20403;-74
2021/06/27 06:40:04;;;;;;;21.73;19.02;;;20.60;99.90;;;;;;4994611;28;20027;-74
2021/06/27 06:42:30;;;;;;;20.88;18.27;;;20.60;99.90;;;;;;4994670;28;20034;-74
2021/06/27 06:44:55;;;;;;;22.67;18.23;;;20.60;99.90;;;;;;4994947;28;20032;-74
2021/06/27 06:47:21;;;;;;;20.48;17.58;;;20.60;99.90;;;;;;4994690;28;20035;-74
2021/06/27 06:49:47;;;;;;;22.80;18.65;;;20.60;99.90;;;;;;4993646;28;20090;-73
2021/06/27 06:52:12;;;;;;;22.23;18.17;;;20.60;99.90;;;;;;4993956;28;20390;-74
2021/06/27 06:54:38;;;;;;;21.48;18.67;;;20.60;99.90;;;;;;4994428;28;20557;-74
2021/06/27 06:57:04;;;;;;;22.50;18.83;;;20.60;99.90;;;;;;4994782;28;20030;-75
2021/06/27 06:59:30;;;;;;;20.88;18.67;;;20.60;99.90;;;;;;4994039;28;20030;-74
2021/06/27 07:01:55;;;;;;;22.67;19.33;;;20.60;99.90;;;;;;4994678;28;20540;-73
2021/06/27 07:04:21;;;;;;;22.73;19.23;;;20.60;99.90;;;;;;5008815;28;20053;-74
2021/06/27 07:06:46;;;;;;;21.77;19.20;;;20.60;99.90;;;;;;4992921;28;20045;-73
2021/06/27 07:09:12;;;;;;;21.42;18.17;;;20.60;99.90;;;;;;5005629;28;20022;-75
2021/06/27 07:11:38;;;;;;;22.00;18.48;;;20.60;99.90;;;;;;4993669;28;20076;-75
2021/06/27 07:14:04;;;;;;;20.20;16.38;;;20.60;99.90;;;;;;4994295;28;20448;-74
2021/06/27 07:16:30;;;;;;;20.02;17.35;;;20.60;99.90;;;;;;4993216;28;20090;-76
2021/06/27 07:18:55;;;;;;;22.98;17.88;;;20.60;99.90;;;;;;4994189;28;20030;-75
2021/06/27 07:21:21;;;;;;;22.30;16.95;;;20.60;99.90;;;;;;4992910;28;20034;-75
2021/06/27 07:23:47;;;;;;;20.17;17.85;;;20.60;99.90;;;;;;5003725;28;20056;-73
2021/06/27 07:26:12;;;;;;;19.77;17.15;;;20.60;99.90;;;;;;5013596;28;20421;-74
2021/06/27 07:28:38;;;;;;;20.02;16.52;;;20.60;99.90;;;;;;5012422;28;20027;-74
2021/06/27 07:31:04;;;;;;;20.55;18.15;;;20.60;99.90;;;;;;4998350;28;20030;-76
2021/06/27 07:33:29;;;;;;;19.60;16.83;;;20.60;99.90;;;;;;4993328;28;20112;-74
2021/06/27 07:35:55;;;;;;;21.42;17.13;;;20.60;99.90;;;;;;4993125;28;20030;-75
2021/06/27 07:38:21;;;;;;;20.13;16.75;;;20.60;99.90;;;;;;4993728;28;20102;-76
2021/06/27 07:40:47;;;;;;;19.92;16.88;;;20.60;99.90;;;;;;4993152;28;20586;-77
2021/06/27 07:43:13;;;;;;;18.83;15.85;;;20.60;99.90;;;;;;4993468;28;20059;-75
2021/06/27 07:45:40;;;;;;;18.75;16.25;;;20.60;99.90;;;;;;4993337;28;20129;-74
2021/06/27 07:48:07;;;;;;;21.38;16.85;;;20.60;99.90;;;;;;4993434;28;20023;-77
2021/06/27 07:50:32;;;;;;;20.48;16.25;;;20.60;99.90;;;;;;4993053;28;20030;-74
2021/06/27 07:52:58;;;;;;;19.30;17.08;;;20.60;99.90;;;;;;4992863;28;20030;-74
2021/06/27 07:55:24;;;;;;;18.65;16.65;;;20.60;99.90;;;;;;4993064;28;20054;-75
2021/06/27 07:57:49;;;;;;;17.80;15.90;;;20.60;99.90;;;;;;4993634;28;20453;-74
2021/06/27 08:00:16;;;;;;;19.65;16.25;;;20.60;99.90;;;;;;4993430;28;20110;-75
2021/06/27 08:02:42;;;;;;;18.50;15.73;;;20.60;99.90;;;;;;4993258;28;20427;-77
2021/06/27 08:05:08;;;;;;;18.17;16.27;;;20.60;99.90;;;;;;4992262;28;20030;-75
2021/06/27 08:07:34;;;;;;;17.10;15.30;;;20.60;99.90;;;;;;4992921;28;20035;-75
2021/06/27 08:10:01;;;;;;;18.27;14.88;;;20.60;99.90;;;;;;4993796;28;20034;-75
2021/06/27 08:12:26;;;;;;;19.30;15.00;;;20.60;99.90;;;;;;4992802;28;20509;-75
2021/06/27 08:14:52;;;;;;;18.23;15.07;;;20.60;99.90;;;;;;4992949;28;20027;-74
2021/06/27 08:17:17;;;;;;;17.27;15.30;;;20.70;99.90;;;;;;4993786;28;20037;-74
2021/06/27 08:19:46;;;;;;;25.23;19.08;;;20.70;99.90;;;;;;4992219;28;20018;-76
2021/06/27 08:22:12;;;;;;;20.67;17.58;;;20.70;99.90;;;;;;4993024;28;20046;-75
2021/06/27 08:24:37;;;;;;;26.00;20.17;;;20.70;99.90;;;;;;4992673;28;20053;-76
2021/06/27 08:27:03;;;;;;;29.17;20.00;;;20.80;99.90;;;;;;4993029;28;20034;-76
2021/06/27 08:29:29;;;;;;;25.30;19.42;;;20.80;99.90;;;;;;4992510;28;20054;-75
2021/06/27 08:31:54;;;;;;;29.45;20.58;;;20.80;99.90;;;;;;4992769;28;20105;-75
2021/06/27 08:34:20;;;;;;;28.27;19.33;;;20.80;99.90;;;;;;4992873;28;20026;-75
2021/06/27 08:36:46;;;;;;;24.15;19.20;;;20.90;99.90;;;;;;4992610;28;20395;-76
2021/06/27 08:39:11;;;;;;;28.98;19.23;;;20.90;99.90;;;;;;4992233;28;20564;-75
2021/06/27 08:41:37;;;;;;;24.60;20.20;;;20.90;99.90;;;;;;4992028;28;20026;-74
2021/06/27 08:44:05;;;;;;;25.90;20.48;;;20.90;99.90;;;;;;4992975;28;20031;-74
2021/06/27 08:46:34;;;;;;;23.23;18.65;;;21.00;99.90;;;;;;4992079;28;20042;-73
2021/06/27 08:49:01;;;;;;;23.58;18.63;;;21.00;99.90;;;;;;4992152;28;20022;-73
2021/06/27 08:51:27;;;;;;;27.88;18.88;;;21.00;99.90;;;;;;4991535;28;20041;-72
2021/06/27 08:53:53;;;;;;;21.20;18.60;;;21.00;99.90;;;;;;4990358;28;20118;-72
2021/06/27 08:56:19;;;;;;;22.98;20.20;;;21.00;99.90;;;;;;4991667;28;20109;-77
2021/06/27 08:58:46;;;;;;;23.75;17.90;;;20.90;99.90;;;;;;4991330;28;20027;-74
2021/06/27 09:01:21;;;;;;;23.85;17.73;;;21.00;99.90;;;;;;5007126;28;20486;-75
2021/06/27 09:03:49;;;;;;;20.23;17.13;;;21.00;99.90;;;;;;4992668;28;20034;-75
2021/06/27 09:06:40;;;;;;;22.05;18.02;;;21.00;99.90;;;;;;4992062;28;20069;-75
2021/06/27 09:09:20;;;;;;;19.60;16.90;;;21.00;99.90;;;;;;4987253;28;20034;-73
2021/06/27 09:12:10;;;;;;;21.55;17.13;;;21.00;99.90;;;;;;4991289;28;20026;-75
2021/06/27 09:14:38;;;;;;;18.85;15.98;;;21.00;99.90;;;;;;4991523;28;20057;-74
2021/06/27 09:17:22;;;;;;;19.75;16.23;;;21.00;99.90;;;;;;4988987;28;20026;-79
2021/06/27 09:19:54;;;;;;;18.42;15.98;;;21.00;99.90;;;;;;4990115;28;20034;-77
2021/06/27 09:22:50;;;;;;;19.85;16.65;;;21.00;99.90;;;;;;4990471;28;20467;-73
2021/06/27 09:25:33;;;;;;;17.42;15.23;;;21.10;99.90;;;;;;4978298;28;20037;-77
2021/06/27 09:28:01;;;;;;;18.88;15.82;;;21.10;99.90;;;;;;4989638;28;20029;-75
2021/06/27 09:30:28;;;;;;;17.40;15.57;;;21.10;99.90;;;;;;4990447;28;20114;-75
2021/06/27 09:33:16;;;;;;;18.92;15.55;;;21.10;99.90;;;;;;4992056;28;20609;-76
2021/06/27 09:35:50;;;;;;;18.10;15.65;;;21.10;99.90;;;;;;4991166;28;20073;-72
2021/06/27 09:38:32;;;;;;;19.23;14.55;;;21.10;99.90;;;;;;4991403;28;20084;-73
2021/06/27 09:41:01;;;;;;;20.17;15.82;;;21.10;99.90;;;;;;4991991;28;20037;-73
2021/06/27 09:43:28;;;;;;;21.73;15.05;;;21.10;99.90;;;;;;4991776;28;20029;-73
2021/06/27 09:46:11;;;;;;;17.58;14.70;;;21.10;99.90;;;;;;4991731;28;20037;-75
2021/06/27 09:48:56;;;;;;;18.60;14.70;;;21.10;99.90;;;;;;4991362;28;20018;-76
2021/06/27 09:51:26;;;;;;;17.95;14.55;;;21.10;99.90;;;;;;4991540;28;20026;-74
2021/06/27 09:53:52;;;;;;;16.38;14.48;;;21.20;99.90;;;;;;4991671;28;20383;-75
2021/06/27 09:56:19;;;;;;;17.17;14.57;;;21.20;99.90;;;;;;4991793;28;20034;-73
2021/06/27 09:58:59;;;;;;;16.58;14.00;;;21.20;99.90;;;;;;5006584;28;20026;-73
2021/06/27 10:01:26;;;;;;;14.48;12.95;;;21.20;99.90;;;;;;4991224;28;20103;-73
2021/06/27 10:03:54;;;;;;;18.80;13.23;;;21.20;99.90;;;;;;4991780;28;20237;-74
2021/06/27 10:06:41;;;;;;;15.13;13.52;;;21.20;99.90;;;;;;5006577;28;20406;-72
2021/06/27 10:09:10;;;;;;;14.30;12.75;;;21.20;99.90;;;;;;4994602;28;20121;-76
2021/06/27 10:11:35;;;;;;;14.63;13.10;;;21.30;99.90;;;;;;4991255;28;20041;-73
2021/06/27 10:14:08;;;;;;;15.18;13.10;;;21.30;99.90;;;;;;4991504;28;20113;-74
2021/06/27 10:16:34;;;;;;;14.88;13.27;;;21.30;99.90;;;;;;4991515;28;20111;-76
2021/06/27 10:19:01;;;;;;;16.85;13.75;;;21.30;99.90;;;;;;4991254;28;20034;-73
2021/06/27 10:21:28;;;;;;;16.63;13.38;;;21.30;99.90;;;;;;5006359;28;20034;-73
2021/06/27 10:23:55;;;;;;;14.38;12.82;;;21.30;99.90;;;;;;4991736;28;20033;-74
2021/06/27 10:26:23;;;;;;;16.95;12.90;;;21.30;99.90;;;;;;4991267;28;20466;-74
2021/06/27 10:28:51;;;;;;;15.38;12.25;;;21.30;99.90;;;;;;4991862;28;20022;-74
2021/06/27 10:31:20;;;;;;;14.35;12.15;;;21.30;99.90;;;;;;4991797;28;20101;-77
2021/06/27 10:33:46;;;;;;;14.07;12.18;;;21.30;99.90;;;;;;4991823;28;20037;-76
2021/06/27 10:36:18;;;;;;;13.98;12.23;;;21.30;99.90;;;;;;4991257;28;20493;-73
2021/06/27 10:38:47;;;;;;;13.60;12.07;;;21.30;99.90;;;;;;4991064;28;20022;-75
2021/06/27 10:41:13;;;;;;;12.38;10.95;;;21.40;99.90;;;;;;4991532;28;20026;-75
2021/06/27 10:43:59;;;;;;;12.77;11.32;;;21.40;99.90;;;;;;4991240;28;20033;-76
2021/06/27 10:46:48;;;;;;;13.07;11.75;;;21.40;99.90;;;;;;4991076;28;20113;-76
2021/06/27 10:49:32;;;;;;;12.02;10.82;;;21.40;99.90;;;;;;4990962;28;20023;-76
2021/06/27 10:52:11;;;;;;;12.88;11.30;;;21.40;99.90;;;;;;5006345;28;20045;-74
2021/06/27 10:54:41;;;;;;;11.20;10.10;;;21.40;99.90;;;;;;4991139;28;20487;-74
2021/06/27 10:57:11;;;;;;;11.85;10.68;;;21.40;99.90;;;;;;4991161;28;20030;-75
2021/06/27 10:59:48;;;;;;;13.13;11.02;;;21.40;99.90;;;;;;4991712;28;20058;-75
2021/06/27 11:02:25;;;;;;;12.98;11.35;;;21.40;99.90;;;;;;4994841;28;20038;-76
2021/06/27 11:04:53;;;;;;;13.68;11.88;;;21.40;99.90;;;;;;4994737;28;20425;-75
2021/06/27 11:07:36;;;;;;;11.10;10.00;;;21.40;99.90;;;;;;4995060;28;20433;-73
2021/06/27 11:10:27;;;;;;;12.10;10.90;;;21.50;99.90;;;;;;4994517;28;20030;-73
2021/06/27 11:12:59;;;;;;;11.43;10.00;;;21.40;99.90;;;;;;4994731;28;20038;-74
2021/06/27 11:15:36;;;;;;;11.70;10.50;;;21.50;99.90;;;;;;4994393;28;20030;-73
2021/06/27 11:18:08;;;;;;;11.52;10.35;;;21.40;99.90;;;;;;4994423;28;20033;-73
2021/06/27 11:20:48;;;;;;;11.35;9.77;;;21.50;99.90;;;;;;4985364;28;20037;-72
2021/06/27 11:23:14;;;;;;;11.27;10.10;;;21.40;99.90;;;;;;4993890;28;20084;-73
2021/06/27 11:25:42;;;;;;;12.68;10.30;;;21.50;99.90;;;;;;4994236;28;20643;-75
2021/06/27 11:28:20;;;;;;;11.27;10.18;;;21.50;99.90;;;;;;4994235;28;20065;-75
2021/06/27 11:30:49;;;;;;;10.32;9.32;;;21.50;99.90;;;;;;5009346;28;20019;-77
2021/06/27 11:33:18;;;;;;;10.50;9.45;;;21.50;99.90;;;;;;4994479;28;20490;-77
2021/06/27 11:35:50;;;;;;;11.50;9.70;;;21.50;99.90;;;;;;4994090;28;20494;-76
2021/06/27 11:38:37;;;;;;;10.32;9.38;;;21.50;99.90;;;;;;4994521;28;20029;-77
2021/06/27 11:41:12;;;;;;;9.93;8.85;;;21.50;99.90;;;;;;4993768;28;20022;-76
2021/06/27 11:43:56;;;;;;;10.82;9.70;;;21.50;99.90;;;;;;4993875;28;20379;-74
2021/06/27 11:46:45;;;;;;;10.23;9.15;;;21.50;99.90;;;;;;4993938;28;20038;-76
2021/06/27 11:49:16;;;;;;;10.07;9.07;;;21.60;99.90;;;;;;4993597;28;20101;-76
2021/06/27 11:51:43;;;;;;;10.00;9.00;;;21.50;99.90;;;;;;4993563;28;20453;-75
2021/06/27 11:54:11;;;;;;;10.25;9.23;;;21.60;99.90;;;;;;4993856;28;20018;-73
2021/06/27 11:56:59;;;;;;;12.45;10.20;;;21.60;99.90;;;;;;4993709;28;20537;-77
2021/06/27 11:59:31;;;;;;;9.85;8.85;;;21.60;99.90;;;;;;4993323;28;20517;-76
2021/06/27 12:02:28;;;;;;;12.38;9.48;;;21.60;99.90;;;;;;4993965;28;20022;-75
2021/06/27 12:05:00;;;;;;;10.18;8.85;;;21.60;99.90;;;;;;4993392;28;20034;-76
2021/06/27 12:07:26;;;;;;;10.57;9.48;;;21.60;99.90;;;;;;4993560;28;20049;-76
2021/06/27 12:09:52;;;;;;;10.15;8.75;;;21.60;99.90;;;;;;4993581;28;20414;-76
2021/06/27 12:12:34;;;;;;;10.77;8.93;;;21.60;99.90;;;;;;4992385;28;20109;-75
2021/06/27 12:14:59;;;;;;;9.90;8.90;;;21.60;99.90;;;;;;4993711;28;20113;-75
2021/06/27 12:17:25;;;;;;;9.88;8.75;;;21.60;99.90;;;;;;5008635;28;20101;-76
2021/06/27 12:19:53;;;;;;;11.45;9.43;;;21.60;99.90;;;;;;4993297;28;20038;-76
2021/06/27 12:22:19;;;;;;;12.18;9.13;;;21.50;99.90;;;;;;4993722;28;20069;-76
2021/06/27 12:24:45;;;;;;;10.18;9.18;;;21.50;99.90;;;;;;4993505;28;20437;-74
2021/06/27 12:27:12;;;;;;;10.00;8.63;;;21.60;99.90;;;;;;4993178;28;20030;-74
2021/06/27 12:29:53;;;;;;;10.00;9.00;;;21.60;99.90;;;;;;4993104;28;20026;-76
2021/06/27 12:32:19;;;;;;;10.23;9.18;;;21.60;99.90;;;;;;4993504;28;20028;-75
2021/06/27 12:34:46;;;;;;;9.38;8.45;;;21.60;99.90;;;;;;4993484;28;20026;-73